createdAt,value
2019-04-27T00:02:22.464Z,94.52
2019-04-27T00:05:54.190Z,94.97
2019-04-27T00:09:00.414Z,94.02
2019-04-27T00:12:33.073Z,93.40
2019-04-27T00:15:49.769Z,93.71
2019-04-27T00:19:03.759Z,93.88
2019-04-27T00:22:17.388Z,92.62
2019-04-27T00:25:18.244Z,93.09
2019-04-27T00:28:15.153Z,93.52
2019-04-27T00:31:13.313Z,93.33
2019-04-27T00:34:13.721Z,93.58
2019-04-27T00:37:20.678Z,93.41
2019-04-27T00:40:31.011Z,93.06
2019-04-27T00:43:34.632Z,93.89
2019-04-27T00:46:27.658Z,93.25
2019-04-27T00:49:30.495Z,94.05
2019-04-27T00:52:34.887Z,93.79
2019-04-27T00:55:35.155Z,94.46
2019-04-27T00:58:34.635Z,95.29
2019-04-27T01:01:43.497Z,95.55
2019-04-27T01:04:48.657Z,96.24
2019-04-27T01:07:55.639Z,94.90
2019-04-27T01:10:56.991Z,94.38
2019-04-27T01:13:58.601Z,93.37
2019-04-27T01:17:09.860Z,93.87
2019-04-27T01:20:09.657Z,93.84
2019-04-27T01:23:10.765Z,93.43
2019-04-27T01:26:25.291Z,93.07
2019-04-27T01:29:36.537Z,93.26
2019-04-27T01:32:39.238Z,93.61
2019-04-27T01:35:39.111Z,93.63
2019-04-27T01:38:49.685Z,93.89
2019-04-27T01:42:08.896Z,93.03
2019-04-27T01:45:14.148Z,92.85
2019-04-27T01:48:23.770Z,94.15
2019-04-27T01:51:29.474Z,94.07
2019-04-27T01:54:04.719Z,93.40
2019-04-27T01:57:06.767Z,93.91
2019-04-27T02:00:06.564Z,93.59
2019-04-27T02:03:10.523Z,92.81
2019-04-27T02:06:26.855Z,92.43
2019-04-27T02:09:18.784Z,90.73
2019-04-27T02:12:29.135Z,89.77
2019-04-27T02:15:31.397Z,89.82
2019-04-27T02:18:37.448Z,91.19
2019-04-27T02:21:41.359Z,92.13
2019-04-27T02:24:46.103Z,92.94
2019-04-27T02:27:47.075Z,92.90
2019-04-27T02:31:04.421Z,92.30
2019-04-27T02:34:02.532Z,91.46
2019-04-27T02:37:11.249Z,90.58
2019-04-27T02:40:11.883Z,91.53
2019-04-27T02:43:21.376Z,90.83
2019-04-27T02:46:24.897Z,91.82
2019-04-27T02:49:23.759Z,91.59
2019-04-27T02:52:40.451Z,91.09
2019-04-27T02:55:30.431Z,91.35
2019-04-27T02:58:34.592Z,90.82
2019-04-27T03:01:43.595Z,90.46
2019-04-27T03:04:30.540Z,90.29
2019-04-27T03:07:42.828Z,91.00
2019-04-27T03:10:50.338Z,91.54
2019-04-27T03:14:34.901Z,92.01
2019-04-27T03:17:59.694Z,92.29
2019-04-27T03:21:13.210Z,92.85
2019-04-27T03:24:10.860Z,93.53
2019-04-27T03:27:27.065Z,93.27
2019-04-27T03:30:26.655Z,93.61
2019-04-27T03:33:36.311Z,93.40
2019-04-27T03:36:40.119Z,93.94
2019-04-27T03:39:45.400Z,94.25
2019-04-27T03:42:55.685Z,94.32
2019-04-27T03:45:39.782Z,94.31
2019-04-27T03:48:41.560Z,94.68
2019-04-27T03:51:32.482Z,95.25
2019-04-27T03:54:22.755Z,95.83
2019-04-27T03:57:33.035Z,95.81
2019-04-27T04:00:33.394Z,96.08
2019-04-27T04:03:50.154Z,95.57
2019-04-27T04:06:51.763Z,96.25
2019-04-27T04:10:00.116Z,97.03
2019-04-27T04:13:31.783Z,97.97
2019-04-27T04:16:39.461Z,98.59
2019-04-27T04:19:54.005Z,97.96
2019-04-27T04:22:44.427Z,97.51
2019-04-27T04:25:37.241Z,96.63
2019-04-27T04:28:41.712Z,95.93
2019-04-27T04:31:50.010Z,95.19
2019-04-27T04:35:10.912Z,94.59
2019-04-27T04:38:13.172Z,93.82
2019-04-27T04:41:15.911Z,93.11
2019-04-27T04:44:23.982Z,92.19
2019-04-27T04:47:45.497Z,92.04
2019-04-27T04:50:30.563Z,92.11
2019-04-27T04:53:36.088Z,91.65
2019-04-27T04:56:32.298Z,91.50
2019-04-27T04:59:36.282Z,91.44
2019-04-27T05:02:39.973Z,90.45
2019-04-27T05:05:33.397Z,89.90
2019-04-27T05:08:36.253Z,88.93
2019-04-27T05:11:51.618Z,87.86
2019-04-27T05:14:53.206Z,88.30
2019-04-27T05:17:59.662Z,89.46
2019-04-27T05:21:20.142Z,90.15
2019-04-27T05:24:29.291Z,90.65
2019-04-27T05:27:29.311Z,90.33
2019-04-27T05:30:21.570Z,90.58
2019-04-27T05:33:28.561Z,89.55
2019-04-27T05:37:01.114Z,90.21
2019-04-27T05:39:51.051Z,89.95
2019-04-27T05:43:01.286Z,89.11
2019-04-27T05:46:39.840Z,89.19
2019-04-27T05:49:48.523Z,89.81
2019-04-27T05:52:54.159Z,90.64
2019-04-27T05:55:49.436Z,90.42
2019-04-27T05:58:57.326Z,90.51
2019-04-27T06:02:02.101Z,89.65
2019-04-27T06:05:02.118Z,89.63
2019-04-27T06:08:02.101Z,89.58
2019-04-27T06:10:59.145Z,89.82
2019-04-27T06:14:12.951Z,90.93
2019-04-27T06:17:17.281Z,91.35
2019-04-27T06:20:11.731Z,91.09
2019-04-27T06:23:12.582Z,91.08
2019-04-27T06:26:25.599Z,91.18
2019-04-27T06:29:32.101Z,91.45
2019-04-27T06:32:32.116Z,92.06
2019-04-27T06:35:32.101Z,91.65
2019-04-27T06:38:32.583Z,91.74
2019-04-27T06:41:29.445Z,91.80
2019-04-27T06:44:41.438Z,91.46
2019-04-27T06:47:31.366Z,89.97
2019-04-27T06:50:23.903Z,89.23
2019-04-27T06:53:35.179Z,90.02
2019-04-27T06:56:34.473Z,91.77
2019-04-27T06:59:40.075Z,91.22
2019-04-27T07:02:45.375Z,90.46
2019-04-27T07:05:43.460Z,89.24
2019-04-27T07:08:49.944Z,89.39
2019-04-27T07:11:51.790Z,91.00
2019-04-27T07:14:55.249Z,90.74
2019-04-27T07:17:56.562Z,90.38
2019-04-27T07:20:59.225Z,89.93
2019-04-27T07:24:12.831Z,87.78
2019-04-27T07:27:21.213Z,88.34
2019-04-27T07:30:16.353Z,89.31
2019-04-27T07:33:18.576Z,89.18
2019-04-27T07:36:30.862Z,89.57
2019-04-27T07:39:41.801Z,88.26
2019-04-27T07:42:47.111Z,89.47
2019-04-27T07:45:39.686Z,91.49
2019-04-27T07:48:50.892Z,91.00
2019-04-27T07:51:49.860Z,90.85
2019-04-27T07:54:31.691Z,90.64
2019-04-27T07:57:19.857Z,91.99
2019-04-27T08:00:21.114Z,92.15
2019-04-27T08:03:29.433Z,92.81
2019-04-27T08:06:29.181Z,93.39
2019-04-27T08:12:20.791Z,93.80
2019-04-27T08:15:24.306Z,93.18
2019-04-27T08:18:34.471Z,92.59
2019-04-27T08:21:47.225Z,91.74
2019-04-27T08:24:17.456Z,90.12
2019-04-27T08:27:32.747Z,89.94
2019-04-27T08:30:23.192Z,88.16
2019-04-27T08:33:21.626Z,85.78
2019-04-27T08:39:13.907Z,82.98
2019-04-27T08:42:25.900Z,80.17
2019-04-27T08:45:24.992Z,76.84
2019-04-27T08:48:15.517Z,73.85
2019-04-27T08:50:45.932Z,73.54
2019-04-27T08:53:37.365Z,74.15
2019-04-27T08:56:21.332Z,69.56
2019-04-27T08:59:01.132Z,70.04
2019-04-27T09:01:58.661Z,69.93
2019-04-27T09:04:49.563Z,67.62
2019-04-27T09:07:43.383Z,68.60
2019-04-27T09:10:50.391Z,67.89
2019-04-27T09:13:59.949Z,66.67
2019-04-27T09:17:09.564Z,64.64
2019-04-27T09:20:04.670Z,65.66
2019-04-27T09:23:18.623Z,66.03
2019-04-27T09:26:24.459Z,69.35
2019-04-27T09:29:22.064Z,69.67
2019-04-27T09:31:55.278Z,72.40
2019-04-27T09:34:28.870Z,75.32
2019-04-27T09:37:06.214Z,75.23
2019-04-27T09:39:46.159Z,78.64
2019-04-27T09:42:26.720Z,83.75
2019-04-27T09:44:59.270Z,85.99
2019-04-27T09:47:32.366Z,87.07
2019-04-27T09:50:12.025Z,86.38
2019-04-27T09:52:51.035Z,85.74
2019-04-27T09:55:23.172Z,85.60
2019-04-27T09:58:18.387Z,83.90
2019-04-27T10:00:48.856Z,83.54
2019-04-27T10:03:33.680Z,85.83
2019-04-27T10:06:11.198Z,81.96
2019-04-27T10:08:58.626Z,81.40
2019-04-27T10:11:39.109Z,81.55
2019-04-27T10:14:26.422Z,76.19
2019-04-27T10:17:03.526Z,79.54
2019-04-27T10:20:13.356Z,76.96
2019-04-27T10:23:01.386Z,80.92
2019-04-27T10:25:33.477Z,80.87
2019-04-27T10:28:16.228Z,80.91
2019-04-27T10:31:11.965Z,81.86
2019-04-27T10:34:17.003Z,83.17
2019-04-27T10:37:12.513Z,87.49
2019-04-27T10:40:18.587Z,90.44
2019-04-27T10:43:13.042Z,92.59
2019-04-27T10:46:00.333Z,90.64
2019-04-27T10:48:50.104Z,88.94
2019-04-27T10:51:23.095Z,88.02
2019-04-27T10:54:04.645Z,82.92
2019-04-27T10:56:55.889Z,85.71
2019-04-27T11:00:00.311Z,85.49
2019-04-27T11:02:58.371Z,77.01
2019-04-27T11:06:18.311Z,79.47
2019-04-27T11:10:20.163Z,81.64
2019-04-27T11:13:06.355Z,80.91
2019-04-27T11:16:07.688Z,80.10
2019-04-27T11:19:01.511Z,82.25
2019-04-27T11:22:10.684Z,80.66
2019-04-27T11:25:16.445Z,75.01
2019-04-27T11:28:12.380Z,74.44
2019-04-27T11:31:01.457Z,76.83
2019-04-27T11:33:57.877Z,79.67
2019-04-27T11:37:00.125Z,79.98
2019-04-27T11:40:08.474Z,80.59
2019-04-27T11:43:05.765Z,83.56
2019-04-27T11:46:06.208Z,83.04
2019-04-27T11:48:58.166Z,82.06
2019-04-27T11:51:46.585Z,86.38
2019-04-27T11:54:28.575Z,87.63
2019-04-27T11:57:23.840Z,85.72
2019-04-27T12:00:07.462Z,87.82
2019-04-27T12:03:08.867Z,90.50
2019-04-27T12:06:08.196Z,90.15
2019-04-27T12:09:11.915Z,89.71
2019-04-27T12:12:18.157Z,86.13
2019-04-27T12:18:02.748Z,75.08
2019-04-27T12:20:55.749Z,76.06
2019-04-27T12:23:48.397Z,71.91
2019-04-27T12:27:02.919Z,62.04
2019-04-27T12:30:07.640Z,58.18
2019-04-27T12:32:55.711Z,64.53
2019-04-27T12:35:49.687Z,68.27
2019-04-27T12:38:47.478Z,69.00
2019-04-27T12:41:56.045Z,75.62
2019-04-27T12:44:42.184Z,78.75
2019-04-27T12:47:12.646Z,77.93
2019-04-27T12:49:57.481Z,77.86
2019-04-27T12:52:38.427Z,81.32
2019-04-27T12:55:38.689Z,82.83
2019-04-27T12:58:40.066Z,83.83
2019-04-27T13:01:18.051Z,82.52
2019-04-27T13:03:48.306Z,82.91
2019-04-27T13:06:25.606Z,83.93
2019-04-27T13:09:09.044Z,80.09
2019-04-27T13:11:41.310Z,77.94
2019-04-27T13:14:18.135Z,60.35
2019-04-27T13:16:50.640Z,56.27
2019-04-27T13:19:28.732Z,54.06
2019-04-27T13:22:09.060Z,51.89
2019-04-27T13:24:57.907Z,52.45
2019-04-27T13:27:33.823Z,62.86
2019-04-27T13:30:20.792Z,66.98
2019-04-27T13:32:56.714Z,63.43
2019-04-27T13:35:28.526Z,57.44
2019-04-27T13:38:01.686Z,47.50
2019-04-27T13:40:42.497Z,49.26
2019-04-27T13:43:57.393Z,51.55
2019-04-27T13:46:38.758Z,58.05
2019-04-27T13:50:06.484Z,65.71
2019-04-27T13:53:00.619Z,67.27
2019-04-27T13:56:06.444Z,53.28
2019-04-27T13:59:01.178Z,51.04
2019-04-27T14:02:01.692Z,51.93
2019-04-27T14:04:54.149Z,59.22
2019-04-27T14:07:53.347Z,61.89
2019-04-27T14:11:02.482Z,59.83
2019-04-27T14:14:07.794Z,61.40
2019-04-27T14:17:19.265Z,66.12
2019-04-27T14:20:21.755Z,69.49
2019-04-27T14:23:34.885Z,70.69
2019-04-27T14:26:43.003Z,72.08
2019-04-27T14:29:46.794Z,73.66
2019-04-27T14:32:52.860Z,72.28
2019-04-27T14:35:56.619Z,75.20
2019-04-27T14:39:01.232Z,74.79
2019-04-27T14:42:05.501Z,73.66
2019-04-27T14:45:15.835Z,74.76
2019-04-27T14:48:08.196Z,76.95
2019-04-27T14:51:08.722Z,81.94
2019-04-27T14:54:22.589Z,78.51
2019-04-27T14:57:27.120Z,80.13
2019-04-27T15:00:34.883Z,85.31
2019-04-27T15:03:32.831Z,85.03
2019-04-27T15:06:32.607Z,87.40
2019-04-27T15:09:37.504Z,88.77
2019-04-27T15:12:42.561Z,89.17
2019-04-27T15:15:43.472Z,90.04
2019-04-27T15:18:47.654Z,90.48
2019-04-27T15:21:58.594Z,86.63
2019-04-27T15:25:09.319Z,83.96
2019-04-27T15:28:07.360Z,83.22
2019-04-27T15:31:09.787Z,81.72
2019-04-27T15:34:10.936Z,79.43
2019-04-27T15:37:28.234Z,80.00
2019-04-27T15:40:29.880Z,78.53
2019-04-27T15:43:27.262Z,78.95
2019-04-27T15:45:59.515Z,77.90
2019-04-27T15:48:34.016Z,77.03
2019-04-27T15:51:25.052Z,76.46
2019-04-27T15:54:03.139Z,75.59
2019-04-27T15:56:49.094Z,75.29
2019-04-27T15:59:37.844Z,74.33
2019-04-27T16:02:22.436Z,70.95
2019-04-27T16:05:11.648Z,67.94
2019-04-27T16:08:15.816Z,70.07
2019-04-27T16:11:16.560Z,71.72
2019-04-27T16:14:13.123Z,73.87
2019-04-27T16:17:11.426Z,74.33
2019-04-27T16:20:08.547Z,75.25
2019-04-27T16:23:18.181Z,73.59
2019-04-27T16:25:54.168Z,74.50
2019-04-27T16:28:53.324Z,76.47
2019-04-27T16:32:02.616Z,76.54
2019-04-27T16:34:56.423Z,78.92
2019-04-27T16:38:07.784Z,80.86
2019-04-27T16:41:03.860Z,83.70
2019-04-27T16:44:06.892Z,85.39
2019-04-27T16:47:00.877Z,84.73
2019-04-27T16:49:48.274Z,83.30
2019-04-27T16:52:42.832Z,83.99
2019-04-27T16:55:35.353Z,83.27
2019-04-27T16:58:36.497Z,84.27
2019-04-27T17:01:46.316Z,86.40
2019-04-27T17:04:38.783Z,84.71
2019-04-27T17:07:37.426Z,82.83
2019-04-27T17:10:25.474Z,82.58
2019-04-27T17:13:00.548Z,84.16
2019-04-27T17:15:58.893Z,86.08
2019-04-27T17:19:06.521Z,84.55
2019-04-27T17:22:01.249Z,83.47
2019-04-27T17:24:58.838Z,83.35
2019-04-27T17:28:03.866Z,85.36
2019-04-27T17:30:50.742Z,84.56
2019-04-27T17:33:53.915Z,83.78
2019-04-27T17:36:54.791Z,83.06
2019-04-27T17:39:57.595Z,83.50
2019-04-27T17:42:48.231Z,82.32
2019-04-27T17:45:36.257Z,83.53
2019-04-27T17:48:20.808Z,84.67
2019-04-27T17:51:18.069Z,86.44
2019-04-27T17:54:11.388Z,86.01
2019-04-27T17:57:10.406Z,86.64
2019-04-27T18:00:13.774Z,89.91
2019-04-27T18:03:05.400Z,91.27
2019-04-27T18:05:49.320Z,91.86
2019-04-27T18:08:49.515Z,92.25
2019-04-27T18:11:44.272Z,91.70
2019-04-27T18:14:44.166Z,90.42
2019-04-27T18:17:48.360Z,92.03
2019-04-27T18:20:38.578Z,91.02
2019-04-27T18:23:38.592Z,90.56
2019-04-27T18:26:29.589Z,91.85
2019-04-27T18:29:03.991Z,89.59
2019-04-27T18:32:14.053Z,90.64
2019-04-27T18:35:09.010Z,91.11
2019-04-27T18:38:01.995Z,91.03
2019-04-27T18:40:53.539Z,91.26
2019-04-27T18:43:51.106Z,93.01
2019-04-27T18:46:38.458Z,94.53
2019-04-27T18:49:36.454Z,94.69
2019-04-27T18:52:52.760Z,96.00
2019-04-27T18:55:32.507Z,96.98
2019-04-27T18:58:25.995Z,97.84
2019-04-27T19:01:08.611Z,97.58
2019-04-27T19:03:58.714Z,97.59
2019-04-27T19:07:00.970Z,98.09
2019-04-27T19:10:03.546Z,98.09
2019-04-27T19:13:00.208Z,98.48
2019-04-27T19:16:00.396Z,98.18
2019-04-27T19:18:43.722Z,98.55
2019-04-27T19:21:36.028Z,98.66
2019-04-27T19:24:35.746Z,98.43
2019-04-27T19:28:04.065Z,97.67
2019-04-27T19:30:45.039Z,96.67
2019-04-27T19:33:30.861Z,94.42
2019-04-27T19:36:27.953Z,94.23
2019-04-27T19:38:59.808Z,93.39
2019-04-27T19:41:39.663Z,93.75
2019-04-27T19:44:40.920Z,93.70
2019-04-27T19:47:26.540Z,94.26
2019-04-27T19:50:13.401Z,93.43
2019-04-27T19:53:16.349Z,92.58
2019-04-27T19:56:16.149Z,92.55
2019-04-27T19:59:08.938Z,92.28
2019-04-27T20:02:04.365Z,92.57
2019-04-27T20:05:16.418Z,92.29
2019-04-27T20:08:04.725Z,91.45
2019-04-27T20:11:05.611Z,91.07
2019-04-27T20:13:52.510Z,88.48
2019-04-27T20:16:51.944Z,88.87
2019-04-27T20:20:02.874Z,87.68
2019-04-27T20:23:02.867Z,88.26
2019-04-27T20:25:54.766Z,87.97
2019-04-27T20:28:34.406Z,87.53
2019-04-27T20:31:36.335Z,87.96
2019-04-27T20:34:16.570Z,87.58
2019-04-27T20:37:12.128Z,87.88
2019-04-27T20:40:07.043Z,87.54
2019-04-27T20:43:02.231Z,87.34
2019-04-27T20:45:56.004Z,86.46
2019-04-27T20:48:46.089Z,86.86
2019-04-27T20:51:50.949Z,87.26
2019-04-27T20:54:41.458Z,86.36
2019-04-27T20:57:23.731Z,86.76
2019-04-27T21:00:19.452Z,85.71
2019-04-27T21:03:51.128Z,86.16
2019-04-27T21:06:48.541Z,86.46
2019-04-27T21:09:46.015Z,86.28
2019-04-27T21:12:43.511Z,86.97
2019-04-27T21:15:43.818Z,87.23
2019-04-27T21:18:43.006Z,87.37
2019-04-27T21:21:51.086Z,88.26
2019-04-27T21:24:44.046Z,89.18
2019-04-27T21:27:51.356Z,89.34
2019-04-27T21:30:38.628Z,89.65
2019-04-27T21:33:38.627Z,90.24
2019-04-27T21:36:37.178Z,90.03
2019-04-27T21:39:27.952Z,90.63
2019-04-27T21:42:14.399Z,90.09
2019-04-27T21:45:04.535Z,90.42
2019-04-27T21:48:06.094Z,90.96
2019-04-27T21:51:03.125Z,89.90
2019-04-27T21:54:10.237Z,89.82
2019-04-27T21:57:11.022Z,90.46
2019-04-27T22:00:13.243Z,89.73
2019-04-27T22:03:17.991Z,90.07
2019-04-27T22:06:26.123Z,89.68
2019-04-27T22:09:10.780Z,90.27
2019-04-27T22:12:11.192Z,88.93
2019-04-27T22:15:08.641Z,88.31
2019-04-27T22:18:15.897Z,88.92
2019-04-27T22:21:16.327Z,88.92
2019-04-27T22:24:30.075Z,88.82
2019-04-27T22:27:20.413Z,88.53
2019-04-27T22:30:18.143Z,87.65
2019-04-27T22:33:30.199Z,87.00
2019-04-27T22:36:29.199Z,86.63
2019-04-27T22:39:04.606Z,87.31
2019-04-27T22:42:14.809Z,87.31
2019-04-27T22:45:18.491Z,88.50
2019-04-27T22:48:31.426Z,88.46
2019-04-27T22:51:36.341Z,89.69
2019-04-27T22:54:32.862Z,89.73
2019-04-27T22:57:38.194Z,89.80
2019-04-27T23:01:07.618Z,89.33
2019-04-27T23:04:11.493Z,89.06
2019-04-27T23:07:15.092Z,88.47
2019-04-27T23:10:14.503Z,88.71
2019-04-27T23:13:11.899Z,89.04
2019-04-27T23:16:30.767Z,88.38
2019-04-27T23:19:30.896Z,88.56
2019-04-27T23:22:31.622Z,88.87
2019-04-27T23:25:35.129Z,88.95
2019-04-27T23:28:51.430Z,88.09
2019-04-27T23:32:08.303Z,88.41
2019-04-27T23:35:22.349Z,88.87
2019-04-27T23:38:21.672Z,88.79
2019-04-27T23:41:38.791Z,89.01
2019-04-27T23:44:47.605Z,89.58
2019-04-27T23:47:55.665Z,89.77
2019-04-27T23:50:49.595Z,88.97
2019-04-27T23:53:57.255Z,88.62
2019-04-27T23:57:05.793Z,88.28
